Time;durP1;ratioP1;P1;durP2;ratioP2;P2;SDS_P1;SDS_P2;PMS_P1;PMS_P2;Temp;Humidity;BMP_temperature;BMP_pressure;BME280_temperature;BME280_humidity;BME280_pressure;Samples;Min_cycle;Max_cycle;Signal;HPM_P1;HPM_P2
2021/03/03 00:01:08;;;;;;;;;;;12.10;62.30;;;;;;4258981;33;20156;-73
2021/03/03 00:03:38;;;;;;;;;;;12.10;62.50;;;;;;4247012;33;35145;-73
2021/03/03 00:06:05;;;;;;;;;;;12.10;62.50;;;;;;4260421;33;22315;-73
2021/03/03 00:08:34;;;;;;;;;;;12.10;62.50;;;;;;4260116;33;20341;-73
2021/03/03 00:11:03;;;;;;;;;;;12.00;62.30;;;;;;4260277;33;24900;-73
2021/03/03 00:13:35;;;;;;;;;;;12.00;62.60;;;;;;4259149;33;20345;-73
2021/03/03 00:16:02;;;;;;;;;;;12.00;62.50;;;;;;4259404;33;36720;-73
2021/03/03 00:18:29;;;;;;;;;;;12.00;62.60;;;;;;4259685;33;26906;-73
2021/03/03 00:20:59;;;;;;;;;;;12.00;63.20;;;;;;4260927;33;20079;-73
2021/03/03 00:23:31;;;;;;;;;;;12.00;62.50;;;;;;4259666;33;23155;-73
2021/03/03 00:25:57;;;;;;;;;;;12.00;62.80;;;;;;4258992;33;20022;-73
2021/03/03 00:28:26;;;;;;;;;;;11.90;62.70;;;;;;4259883;33;20051;-73
2021/03/03 00:30:53;;;;;;;;;;;11.90;62.60;;;;;;4259822;33;27576;-73
2021/03/03 00:33:20;;;;;;;;;;;11.90;62.50;;;;;;4258412;33;34938;-73
2021/03/03 00:35:49;;;;;;;;;;;11.90;62.70;;;;;;4259880;33;20011;-73
2021/03/03 00:38:18;;;;;;;;;;;11.90;62.90;;;;;;4259516;33;39127;-73
2021/03/03 00:40:48;;;;;;;;;;;11.90;62.90;;;;;;4247611;33;20105;-73
2021/03/03 00:43:20;;;;;;;;;;;11.90;63.00;;;;;;4259074;33;20063;-73
2021/03/03 00:45:50;;;;;;;;;;;11.80;62.80;;;;;;4259471;33;20062;-73
2021/03/03 00:48:17;;;;;;;;;;;11.80;62.80;;;;;;4259542;33;32921;-73
2021/03/03 00:50:49;;;;;;;;;;;11.80;63.00;;;;;;4259833;33;22113;-73
2021/03/03 00:53:18;;;;;;;;;;;11.80;62.80;;;;;;4258606;33;36456;-73
2021/03/03 00:55:52;;;;;;;;;;;11.70;62.80;;;;;;4259232;33;29068;-74
2021/03/03 00:58:19;;;;;;;;;;;11.70;62.90;;;;;;4258601;33;20000;-73
2021/03/03 01:00:46;;;;;;;;;;;11.70;63.00;;;;;;4257815;33;32032;-73
2021/03/03 01:03:16;;;;;;;;;;;11.70;63.20;;;;;;4258758;33;34443;-73
2021/03/03 01:05:46;;;;;;;;;;;11.60;63.10;;;;;;4258852;33;35494;-73
2021/03/03 01:08:12;;;;;;;;;;;11.60;63.10;;;;;;4259001;33;26260;-73
2021/03/03 01:10:39;;;;;;;;;;;11.60;63.10;;;;;;4258838;33;39700;-73
2021/03/03 01:13:12;;;;;;;;;;;11.60;63.40;;;;;;4259409;33;26097;-73
2021/03/03 01:15:38;;;;;;;;;;;11.60;64.40;;;;;;4259531;33;26198;-73
2021/03/03 01:18:05;;;;;;;;;;;11.60;63.50;;;;;;4259273;33;29274;-73
2021/03/03 01:20:38;;;;;;;;;;;11.50;63.40;;;;;;4257588;33;39109;-73
2021/03/03 01:23:05;;;;;;;;;;;11.50;63.40;;;;;;4258631;33;20029;-73
2021/03/03 01:25:35;;;;;;;;;;;11.60;63.70;;;;;;4259069;33;24142;-73
2021/03/03 01:28:02;;;;;;;;;;;11.50;63.50;;;;;;4258880;33;25673;-73
2021/03/03 01:30:30;;;;;;;;;;;11.50;64.40;;;;;;4258837;33;32002;-73
2021/03/03 01:33:00;;;;;;;;;;;11.50;63.80;;;;;;4258479;33;35888;-73
2021/03/03 01:35:29;;;;;;;;;;;11.50;63.90;;;;;;4259281;33;24001;-73
2021/03/03 01:37:56;;;;;;;;;;;11.50;63.80;;;;;;4258615;33;30123;-73
2021/03/03 01:40:26;;;;;;;;;;;11.50;63.90;;;;;;4258894;33;20074;-73
2021/03/03 01:42:55;;;;;;;;;;;11.50;63.80;;;;;;4258861;33;20075;-73
2021/03/03 01:45:26;;;;;;;;;;;11.50;63.90;;;;;;4258528;33;20003;-73
2021/03/03 01:47:52;;;;;;;;;;;11.40;63.80;;;;;;4258621;33;27541;-73
2021/03/03 01:50:22;;;;;;;;;;;11.40;64.50;;;;;;4258729;33;20053;-73
2021/03/03 01:52:51;;;;;;;;;;;11.40;63.80;;;;;;4259559;33;20038;-73
2021/03/03 01:55:23;;;;;;;;;;;11.40;63.60;;;;;;4259060;33;28408;-73
2021/03/03 01:57:52;;;;;;;;;;;11.40;63.80;;;;;;4246029;33;20091;-73
2021/03/03 02:00:19;;;;;;;;;;;11.40;63.80;;;;;;4258692;33;29759;-73
2021/03/03 02:02:49;;;;;;;;;;;11.40;64.00;;;;;;4259119;33;20074;-73
2021/03/03 02:05:18;;;;;;;;;;;11.40;64.00;;;;;;4246408;33;20074;-73
2021/03/03 02:07:50;;;;;;;;;;;11.40;64.10;;;;;;4259183;33;25856;-73
2021/03/03 02:10:20;;;;;;;;;;;11.40;64.00;;;;;;4262543;33;20449;-73
2021/03/03 02:12:52;;;;;;;;;;;11.40;64.10;;;;;;4261055;33;20155;-73
2021/03/03 02:15:20;;;;;;;;;;;11.40;64.20;;;;;;4262626;33;20015;-73
2021/03/03 02:17:52;;;;;;;;;;;11.30;64.20;;;;;;4262245;33;20048;-73
2021/03/03 02:20:24;;;;;;;;;;;11.40;64.20;;;;;;4261394;33;20018;-73
2021/03/03 02:23:00;;;;;;;;;;;11.40;64.10;;;;;;4262155;33;20021;-73
2021/03/03 02:25:33;;;;;;;;;;;11.40;64.00;;;;;;4261942;33;20118;-73
2021/03/03 02:28:01;;;;;;;;;;;11.40;64.20;;;;;;4261387;33;20042;-73
2021/03/03 02:30:39;;;;;;;;;;;11.40;64.10;;;;;;4261283;33;20055;-73
2021/03/03 02:33:09;;;;;;;;;;;11.40;64.20;;;;;;4249488;33;20011;-74
2021/03/03 02:35:43;;;;;;;;;;;11.40;64.30;;;;;;4261272;33;20019;-74
2021/03/03 02:38:14;;;;;;;;;;;11.30;64.00;;;;;;4261003;33;20428;-73
2021/03/03 02:40:44;;;;;;;;;;;11.40;64.30;;;;;;4261985;33;20072;-73
2021/03/03 02:43:19;;;;;;;;;;;11.30;64.00;;;;;;4262052;33;20025;-73
2021/03/03 02:45:49;;;;;;;;;;;11.30;64.10;;;;;;4261811;33;20094;-73
2021/03/03 02:48:18;;;;;;;;;;;11.30;64.30;;;;;;4261073;33;20066;-73
2021/03/03 02:50:48;;;;;;;;;;;11.30;64.20;;;;;;4261883;33;20050;-73
2021/03/03 02:53:21;;;;;;;;;;;11.30;64.40;;;;;;4260862;33;20058;-73
2021/03/03 02:55:48;;;;;;;;;;;11.30;64.40;;;;;;4260983;33;20013;-73
2021/03/03 02:58:15;;;;;;;;;;;11.30;64.50;;;;;;4261952;33;20013;-73
2021/03/03 03:00:42;;;;;;;;;;;11.30;64.30;;;;;;4261584;33;20435;-73
2021/03/03 03:03:16;;;;;;;;;;;11.30;64.40;;;;;;4261101;33;20022;-73
2021/03/03 03:05:54;;;;;;;;;;;11.30;64.10;;;;;;4261500;33;20007;-73
2021/03/03 03:08:21;;;;;;;;;;;11.30;64.40;;;;;;4260552;33;20330;-73
2021/03/03 03:10:55;;;;;;;;;;;11.30;64.40;;;;;;4248512;33;20003;-73
2021/03/03 03:13:27;;;;;;;;;;;11.20;64.20;;;;;;4260867;33;20000;-73
2021/03/03 03:15:56;;;;;;;;;;;11.20;64.10;;;;;;4261488;33;20026;-74
2021/03/03 03:18:34;;;;;;;;;;;11.30;64.10;;;;;;4259617;33;20051;-74
2021/03/03 03:21:14;;;;;;;;;;;11.30;64.20;;;;;;4260916;33;20067;-73
2021/03/03 03:23:45;;;;;;;;;;;11.20;64.30;;;;;;4260374;33;20023;-73
2021/03/03 03:26:18;;;;;;;;;;;11.20;64.40;;;;;;4260576;33;20443;-73
2021/03/03 03:28:51;;;;;;;;;;;11.20;64.40;;;;;;4248890;33;20025;-73
2021/03/03 03:31:23;;;;;;;;;;;11.20;64.70;;;;;;4248571;33;20018;-73
2021/03/03 03:33:56;;;;;;;;;;;11.20;64.70;;;;;;4260530;33;20083;-73
2021/03/03 03:36:27;;;;;;;;;;;11.20;64.60;;;;;;4260004;33;20018;-73
2021/03/03 03:38:53;;;;;;;;;;;11.20;64.60;;;;;;4259587;33;21280;-73
2021/03/03 03:41:25;;;;;;;;;;;11.20;64.90;;;;;;4259152;33;34238;-73
2021/03/03 03:43:58;;;;;;;;;;;11.20;64.80;;;;;;4261289;33;20376;-73
2021/03/03 03:46:27;;;;;;;;;;;11.20;64.90;;;;;;4260202;33;20068;-73
2021/03/03 03:48:57;;;;;;;;;;;11.10;64.80;;;;;;4259115;33;29420;-73
2021/03/03 03:51:24;;;;;;;;;;;11.20;64.90;;;;;;4259938;33;20084;-73
2021/03/03 03:53:54;;;;;;;;;;;11.10;65.00;;;;;;4260368;33;35765;-73
2021/03/03 03:56:20;;;;;;;;;;;11.20;65.00;;;;;;4259723;33;20013;-73
2021/03/03 03:58:47;;;;;;;;;;;11.10;65.20;;;;;;4260586;33;20070;-73
2021/03/03 04:01:19;;;;;;;;;;;11.10;65.00;;;;;;4259418;33;38742;-73
2021/03/03 04:03:49;;;;;;;;;;;11.10;65.00;;;;;;4259784;33;25575;-73
2021/03/03 04:06:21;;;;;;;;;;;11.10;64.90;;;;;;4259727;33;20011;-72
2021/03/03 04:08:47;;;;;;;;;;;11.10;65.00;;;;;;4261151;33;20061;-72
2021/03/03 04:11:14;;;;;;;;;;;11.10;65.20;;;;;;4259067;33;25895;-72
2021/03/03 04:13:44;;;;;;;;;;;11.10;64.90;;;;;;4259255;33;24469;-73
2021/03/03 04:16:16;;;;;;;;;;;11.10;65.10;;;;;;4259531;33;20023;-73
2021/03/03 04:18:46;;;;;;;;;;;11.10;65.20;;;;;;4260847;33;20025;-72
2021/03/03 04:21:12;;;;;;;;;;;11.10;65.00;;;;;;4258976;33;23476;-72
2021/03/03 04:23:42;;;;;;;;;;;11.10;65.00;;;;;;4259833;33;38689;-72
2021/03/03 04:26:09;;;;;;;;;;;11.10;65.00;;;;;;4247648;33;20028;-73
2021/03/03 04:28:36;;;;;;;;;;;11.10;65.20;;;;;;4259327;33;35124;-73
2021/03/03 04:31:08;;;;;;;;;;;11.10;65.20;;;;;;4259739;33;25867;-72
2021/03/03 04:33:38;;;;;;;;;;;11.10;65.20;;;;;;4259446;33;20010;-73
2021/03/03 04:36:05;;;;;;;;;;;11.00;65.10;;;;;;4247379;33;19995;-72
2021/03/03 04:38:36;;;;;;;;;;;11.00;65.10;;;;;;4258687;33;30549;-73
2021/03/03 04:41:09;;;;;;;;;;;11.00;65.10;;;;;;4258854;33;23485;-72
2021/03/03 04:43:42;;;;;;;;;;;11.00;65.40;;;;;;4247437;33;20055;-72
2021/03/03 04:46:09;;;;;;;;;;;11.00;65.50;;;;;;4247583;33;20034;-73
2021/03/03 04:48:40;;;;;;;;;;;11.00;65.30;;;;;;4260146;33;20077;-72
2021/03/03 04:51:10;;;;;;;;;;;11.00;65.50;;;;;;4260096;33;20062;-73
2021/03/03 04:53:40;;;;;;;;;;;11.00;65.50;;;;;;4258706;33;20078;-73
2021/03/03 04:56:15;;;;;;;;;;;11.00;65.40;;;;;;4259379;33;20008;-72
2021/03/03 04:58:42;;;;;;;;;;;11.00;65.50;;;;;;4259160;33;20396;-73
2021/03/03 05:01:12;;;;;;;;;;;11.00;65.10;;;;;;4259487;33;25362;-73
2021/03/03 05:03:42;;;;;;;;;;;11.00;65.50;;;;;;4259740;33;23807;-73
2021/03/03 05:06:09;;;;;;;;;;;10.90;65.50;;;;;;4258196;33;19999;-72
2021/03/03 05:08:36;;;;;;;;;;;10.90;65.50;;;;;;4257776;33;31977;-73
2021/03/03 05:11:02;;;;;;;;;;;10.90;65.40;;;;;;4258479;33;30974;-73
2021/03/03 05:13:29;;;;;;;;;;;10.90;65.30;;;;;;4259484;33;29132;-73
2021/03/03 05:15:56;;;;;;;;;;;10.90;65.50;;;;;;4257961;33;35453;-73
2021/03/03 05:18:22;;;;;;;;;;;10.90;65.70;;;;;;4259279;33;29019;-73
2021/03/03 05:20:50;;;;;;;;;;;10.90;65.60;;;;;;4259443;33;29614;-73
2021/03/03 05:23:29;;;;;;;;;;;10.90;65.50;;;;;;4257621;33;35257;-73
2021/03/03 05:25:56;;;;;;;;;;;10.90;65.70;;;;;;4257869;33;41151;-73
2021/03/03 05:28:23;;;;;;;;;;;10.80;65.80;;;;;;4258816;33;37926;-73
2021/03/03 05:30:50;;;;;;;;;;;10.80;65.80;;;;;;4259622;33;20381;-74
2021/03/03 05:33:31;;;;;;;;;;;10.80;65.70;;;;;;4258527;33;36991;-73
2021/03/03 05:36:02;;;;;;;;;;;10.80;65.80;;;;;;4259350;33;20027;-74
2021/03/03 05:38:28;;;;;;;;;;;10.80;66.00;;;;;;4258505;33;20051;-74
2021/03/03 05:40:58;;;;;;;;;;;10.80;66.00;;;;;;4247058;33;20443;-74
2021/03/03 05:43:34;;;;;;;;;;;10.80;66.20;;;;;;4261060;33;19996;-73
2021/03/03 05:46:02;;;;;;;;;;;10.80;66.20;;;;;;4263418;33;20011;-73
2021/03/03 05:48:36;;;;;;;;;;;10.80;66.10;;;;;;4263399;33;20394;-73
2021/03/03 05:51:07;;;;;;;;;;;10.80;66.10;;;;;;4263005;33;20011;-72
2021/03/03 05:53:39;;;;;;;;;;;10.70;66.00;;;;;;4262980;33;20027;-73
2021/03/03 05:56:09;;;;;;;;;;;10.80;66.10;;;;;;4263670;33;38014;-73
2021/03/03 05:58:38;;;;;;;;;;;10.70;66.10;;;;;;4263512;33;20019;-72
2021/03/03 06:01:06;;;;;;;;;;;10.70;66.20;;;;;;4263053;33;20015;-73
2021/03/03 06:03:33;;;;;;;;;;;10.70;66.10;;;;;;4262619;33;28121;-73
2021/03/03 06:06:04;;;;;;;;;;;10.70;66.20;;;;;;4264387;33;20058;-73
2021/03/03 06:08:31;;;;;;;;;;;10.70;66.20;;;;;;4251488;33;20017;-73
2021/03/03 06:10:58;;;;;;;;;;;10.70;66.30;;;;;;4263569;33;20067;-73
2021/03/03 06:13:28;;;;;;;;;;;10.70;66.30;;;;;;4262979;33;20010;-73
2021/03/03 06:15:55;;;;;;;;;;;10.70;66.40;;;;;;4263083;33;20035;-74
2021/03/03 06:18:22;;;;;;;;;;;10.70;66.50;;;;;;4262997;33;20063;-74
2021/03/03 06:20:52;;;;;;;;;;;10.70;66.40;;;;;;4251556;33;20040;-72
2021/03/03 06:23:25;;;;;;;;;;;10.70;66.50;;;;;;4263066;33;20364;-73
2021/03/03 06:25:58;;;;;;;;;;;10.70;66.50;;;;;;4264574;33;20063;-73
2021/03/03 06:28:31;;;;;;;;;;;10.60;66.40;;;;;;4263427;33;20070;-72
2021/03/03 06:31:01;;;;;;;;;;;10.60;66.50;;;;;;4264285;33;20063;-72
2021/03/03 06:33:33;;;;;;;;;;;10.60;66.60;;;;;;4263171;33;20026;-72
2021/03/03 06:36:00;;;;;;;;;;;10.60;66.40;;;;;;4264410;33;20019;-72
2021/03/03 06:38:30;;;;;;;;;;;10.60;66.40;;;;;;4263130;33;20003;-72
2021/03/03 06:41:06;;;;;;;;;;;10.60;66.50;;;;;;4263077;33;20106;-72
2021/03/03 06:43:40;;;;;;;;;;;10.60;66.50;;;;;;4263343;33;20007;-72
2021/03/03 06:46:17;;;;;;;;;;;10.60;66.60;;;;;;4264252;33;20105;-72
2021/03/03 06:48:47;;;;;;;;;;;10.60;66.60;;;;;;4251348;33;20009;-72
2021/03/03 06:51:19;;;;;;;;;;;10.60;66.70;;;;;;4264328;33;20049;-72
2021/03/03 06:53:54;;;;;;;;;;;10.60;66.60;;;;;;4251253;33;20051;-72
2021/03/03 06:56:36;;;;;;;;;;;10.60;66.80;;;;;;4261285;33;20038;-72
2021/03/03 06:59:11;;;;;;;;;;;10.60;66.80;;;;;;4262036;33;20007;-73
2021/03/03 07:01:38;;;;;;;;;;;10.60;66.80;;;;;;4261178;33;20011;-72
2021/03/03 07:04:19;;;;;;;;;;;10.60;66.80;;;;;;4261954;33;20082;-72
2021/03/03 07:06:49;;;;;;;;;;;10.60;66.80;;;;;;4261077;33;20413;-73
2021/03/03 07:09:24;;;;;;;;;;;10.60;66.80;;;;;;4261723;33;20352;-73
2021/03/03 07:12:02;;;;;;;;;;;10.60;66.80;;;;;;4260866;33;20066;-72
2021/03/03 07:14:34;;;;;;;;;;;10.60;67.00;;;;;;4261872;33;20007;-73
2021/03/03 07:17:04;;;;;;;;;;;10.60;67.00;;;;;;4261847;33;20043;-73
2021/03/03 07:19:34;;;;;;;;;;;10.50;66.90;;;;;;4261271;33;20019;-73
2021/03/03 07:22:07;;;;;;;;;;;10.50;67.10;;;;;;4261239;33;20086;-73
2021/03/03 07:24:34;;;;;;;;;;;10.50;67.10;;;;;;4260877;33;20063;-72
2021/03/03 07:27:03;;;;;;;;;;;10.50;67.20;;;;;;4261119;33;20023;-73
2021/03/03 07:29:31;;;;;;;;;;;10.60;67.40;;;;;;4248266;33;20038;-73
2021/03/03 07:32:01;;;;;;;;;;;10.50;67.30;;;;;;4261415;33;20007;-73
2021/03/03 07:34:28;;;;;;;;;;;10.50;67.50;;;;;;4261031;33;20021;-73
2021/03/03 07:37:01;;;;;;;;;;;10.50;67.40;;;;;;4261166;33;20045;-73
2021/03/03 07:39:32;;;;;;;;;;;10.50;67.50;;;;;;4260314;33;20047;-73
2021/03/03 07:42:02;;;;;;;;;;;10.50;67.60;;;;;;4261262;33;20065;-73
2021/03/03 07:44:31;;;;;;;;;;;10.50;67.60;;;;;;4261329;33;20070;-73
2021/03/03 07:47:03;;;;;;;;;;;10.50;67.70;;;;;;4248093;33;20055;-73
2021/03/03 07:49:36;;;;;;;;;;;10.50;67.70;;;;;;4260554;33;20054;-73
2021/03/03 07:52:09;;;;;;;;;;;10.50;67.80;;;;;;4261282;33;20012;-73
2021/03/03 07:54:39;;;;;;;;;;;10.60;68.10;;;;;;4260079;33;20010;-73
2021/03/03 07:57:07;;;;;;;;;;;10.60;68.30;;;;;;4260450;33;20008;-73
2021/03/03 07:59:40;;;;;;;;;;;10.60;68.40;;;;;;4260040;33;20018;-74
2021/03/03 08:02:12;;;;;;;;;;;10.60;68.30;;;;;;4259892;33;20041;-73
2021/03/03 08:04:42;;;;;;;;;;;10.60;68.30;;;;;;4259856;33;20419;-72
2021/03/03 08:07:22;;;;;;;;;;;10.60;68.30;;;;;;4259146;33;20043;-72
2021/03/03 08:10:08;;;;;;;;;;;10.60;68.30;;;;;;4261003;33;20003;-72
2021/03/03 08:12:54;;;;;;;;;;;10.60;68.50;;;;;;4260832;33;20432;-72
2021/03/03 08:15:40;;;;;;;;;;;10.60;68.40;;;;;;4260144;33;20007;-72
2021/03/03 08:18:20;;;;;;;;;;;10.70;68.50;;;;;;4260996;33;20535;-73
2021/03/03 08:20:56;;;;;;;;;;;10.70;68.50;;;;;;4259521;33;19999;-72
2021/03/03 08:23:33;;;;;;;;;;;10.70;68.70;;;;;;4259684;33;20011;-72
2021/03/03 08:26:04;;;;;;;;;;;10.70;68.70;;;;;;4258118;33;42910;-72
2021/03/03 08:28:37;;;;;;;;;;;10.70;68.70;;;;;;4259275;33;20019;-72
2021/03/03 08:31:12;;;;;;;;;;;10.70;68.60;;;;;;4247769;33;20035;-72
2021/03/03 08:33:48;;;;;;;;;;;10.70;68.60;;;;;;4259692;33;42946;-73
2021/03/03 08:36:25;;;;;;;;;;;10.70;68.70;;;;;;4259392;33;27857;-72
2021/03/03 08:38:55;;;;;;;;;;;10.80;68.90;;;;;;4259624;33;20059;-72
2021/03/03 08:41:28;;;;;;;;;;;10.80;68.90;;;;;;4247007;33;30251;-73
2021/03/03 08:44:05;;;;;;;;;;;10.80;69.00;;;;;;4258929;33;23386;-72
2021/03/03 08:46:37;;;;;;;;;;;10.90;69.10;;;;;;4260143;33;20021;-72
2021/03/03 08:49:07;;;;;;;;;;;10.90;69.20;;;;;;4258817;33;22412;-73
2021/03/03 08:51:40;;;;;;;;;;;10.90;69.60;;;;;;4258728;33;20021;-72
2021/03/03 08:54:07;;;;;;;;;;;10.90;69.50;;;;;;4260286;33;20019;-72
2021/03/03 08:56:40;;;;;;;;;;;10.90;69.60;;;;;;4258810;33;20051;-72
2021/03/03 08:59:25;;;;;;;;;;;10.90;69.50;;;;;;4258984;33;20424;-73
2021/03/03 09:01:55;;;;;;;;;;;11.00;69.30;;;;;;4260142;33;20021;-73
2021/03/03 09:04:29;;;;;;;;;;;11.00;69.50;;;;;;4260560;33;20095;-72
2021/03/03 09:06:58;;;;;;;;;;;11.00;69.50;;;;;;4259280;33;20058;-73
2021/03/03 09:09:27;;;;;;;;;;;11.10;69.50;;;;;;4247526;33;20027;-73
2021/03/03 09:12:03;;;;;;;;;;;11.10;69.60;;;;;;4259019;33;20047;-73
2021/03/03 09:14:36;;;;;;;;;;;11.10;69.50;;;;;;4259238;33;20007;-74
2021/03/03 09:17:08;;;;;;;;;;;11.20;69.90;;;;;;4259014;33;20079;-73
2021/03/03 09:19:39;;;;;;;;;;;11.20;70.10;;;;;;4258895;33;20074;-73
2021/03/03 09:22:18;;;;;;;;;;;11.20;70.00;;;;;;4260157;33;20022;-73
2021/03/03 09:24:49;;;;;;;;;;;11.30;70.00;;;;;;4260178;33;20010;-73
2021/03/03 09:27:17;;;;;;;;;;;11.30;70.20;;;;;;4258658;33;20018;-73
2021/03/03 09:29:49;;;;;;;;;;;11.30;70.50;;;;;;4259219;33;20134;-73
2021/03/03 09:32:22;;;;;;;;;;;11.30;70.10;;;;;;4258816;33;20007;-73
2021/03/03 09:34:53;;;;;;;;;;;11.40;70.10;;;;;;4258532;33;20046;-73
2021/03/03 09:37:20;;;;;;;;;;;11.40;70.40;;;;;;4260072;33;20055;-73
2021/03/03 09:39:58;;;;;;;;;;;11.40;70.10;;;;;;4258409;33;20031;-73
2021/03/03 09:42:26;;;;;;;;;;;11.50;70.40;;;;;;4245727;33;45219;-74
2021/03/03 09:44:54;;;;;;;;;;;11.50;70.40;;;;;;4258183;33;29392;-73
2021/03/03 09:47:28;;;;;;;;;;;11.60;70.30;;;;;;4258307;33;20000;-73
2021/03/03 09:50:01;;;;;;;;;;;11.60;70.20;;;;;;4259159;33;28598;-72
2021/03/03 09:52:32;;;;;;;;;;;11.60;70.30;;;;;;4257031;33;44929;-73
2021/03/03 09:54:59;;;;;;;;;;;11.70;70.40;;;;;;4258636;33;20008;-73
2021/03/03 09:57:29;;;;;;;;;;;11.80;70.20;;;;;;4259597;33;20015;-72
2021/03/03 09:59:59;;;;;;;;;;;11.80;70.40;;;;;;4259749;33;20007;-72
2021/03/03 10:02:33;;;;;;;;;;;11.90;70.00;;;;;;4259349;33;20028;-72
2021/03/03 10:05:01;;;;;;;;;;;11.90;69.80;;;;;;4258766;33;20012;-72
2021/03/03 10:07:31;;;;;;;;;;;11.90;69.50;;;;;;4259686;33;20531;-73
2021/03/03 10:09:59;;;;;;;;;;;12.00;69.50;;;;;;4258269;33;20439;-72
2021/03/03 10:12:36;;;;;;;;;;;12.00;69.50;;;;;;4259796;33;20055;-72
2021/03/03 10:15:10;;;;;;;;;;;12.10;69.50;;;;;;4246835;33;20018;-73
2021/03/03 10:17:41;;;;;;;;;;;12.10;69.30;;;;;;4258499;33;20078;-73
2021/03/03 10:20:29;;;;;;;;;;;12.20;69.60;;;;;;4257428;33;35293;-73
2021/03/03 10:22:57;;;;;;;;;;;12.20;69.70;;;;;;4253991;33;22194;-73
2021/03/03 10:25:43;;;;;;;;;;;12.30;69.20;;;;;;4258021;33;20010;-73
2021/03/03 10:28:10;;;;;;;;;;;12.30;68.90;;;;;;4246315;33;20063;-73
2021/03/03 10:30:39;;;;;;;;;;;12.40;68.90;;;;;;4260458;33;39879;-73
2021/03/03 10:33:09;;;;;;;;;;;12.40;68.60;;;;;;4249489;33;20024;-73
2021/03/03 10:35:49;;;;;;;;;;;12.50;68.60;;;;;;4261285;33;37777;-73
2021/03/03 10:38:20;;;;;;;;;;;12.60;68.50;;;;;;4262272;33;20011;-73
2021/03/03 10:40:52;;;;;;;;;;;12.60;68.70;;;;;;4261763;33;20073;-73
2021/03/03 10:43:20;;;;;;;;;;;12.70;69.10;;;;;;4260656;33;20011;-73
2021/03/03 10:46:06;;;;;;;;;;;12.70;69.00;;;;;;4262164;33;20071;-73
2021/03/03 10:48:40;;;;;;;;;;;12.70;68.80;;;;;;4248782;33;20393;-73
2021/03/03 10:51:08;;;;;;;;;;;12.80;68.40;;;;;;4261837;33;20022;-73
2021/03/03 10:53:48;;;;;;;;;;;12.80;68.50;;;;;;4261639;33;20028;-73
2021/03/03 10:56:24;;;;;;;;;;;12.80;68.20;;;;;;4261561;33;20516;-73
2021/03/03 10:58:56;;;;;;;;;;;12.90;68.30;;;;;;4261024;33;20029;-73
2021/03/03 11:01:24;;;;;;;;;;;13.00;68.40;;;;;;4261627;33;20007;-74
2021/03/03 11:03:52;;;;;;;;;;;13.00;68.20;;;;;;4260103;33;20015;-73
2021/03/03 11:06:20;;;;;;;;;;;13.10;68.10;;;;;;4260265;33;20003;-73
2021/03/03 11:08:47;;;;;;;;;;;13.10;68.00;;;;;;4260322;33;20074;-73
2021/03/03 11:11:19;;;;;;;;;;;13.10;67.90;;;;;;4260807;33;20007;-73
2021/03/03 11:13:53;;;;;;;;;;;13.20;67.80;;;;;;4261858;33;20110;-73
2021/03/03 11:16:25;;;;;;;;;;;13.20;67.00;;;;;;4260951;33;20027;-73
2021/03/03 11:18:57;;;;;;;;;;;13.30;66.70;;;;;;4260816;33;20003;-73
2021/03/03 11:21:26;;;;;;;;;;;13.30;67.00;;;;;;4261929;33;20019;-73
2021/03/03 11:23:59;;;;;;;;;;;13.40;67.00;;;;;;4248432;33;20090;-73
2021/03/03 11:26:31;;;;;;;;;;;13.40;66.80;;;;;;4261696;33;20021;-73
2021/03/03 11:29:04;;;;;;;;;;;13.50;66.80;;;;;;4261660;33;20021;-73
2021/03/03 11:31:39;;;;;;;;;;;13.50;66.80;;;;;;4260613;33;20015;-73
2021/03/03 11:34:09;;;;;;;;;;;13.60;66.50;;;;;;4248524;33;20460;-73
2021/03/03 11:36:45;;;;;;;;;;;13.60;66.60;;;;;;4260418;33;41218;-73
2021/03/03 11:39:17;;;;;;;;;;;13.70;66.40;;;;;;4260435;33;20059;-73
2021/03/03 11:41:47;;;;;;;;;;;13.70;66.10;;;;;;4258848;33;36258;-73
2021/03/03 11:44:16;;;;;;;;;;;13.70;65.70;;;;;;4260644;33;20021;-73
2021/03/03 11:46:45;;;;;;;;;;;13.80;65.60;;;;;;4259036;33;26269;-73
2021/03/03 11:49:18;;;;;;;;;;;13.80;65.90;;;;;;4260140;33;27230;-73
2021/03/03 11:51:47;;;;;;;;;;;13.80;66.60;;;;;;4260162;33;43752;-73
2021/03/03 11:54:20;;;;;;;;;;;13.80;65.50;;;;;;4260743;33;29014;-73
2021/03/03 11:56:55;;;;;;;;;;;13.90;65.70;;;;;;4260100;33;20009;-74
2021/03/03 11:59:28;;;;;;;;;;;13.90;65.60;;;;;;4259697;33;20011;-73
2021/03/03 12:02:03;;;;;;;;;;;13.90;65.60;;;;;;4247329;33;44198;-74
2021/03/03 12:04:30;;;;;;;;;;;14.00;65.50;;;;;;4259100;33;45189;-74
2021/03/03 12:07:00;;;;;;;;;;;14.00;65.70;;;;;;4260131;33;43186;-74
2021/03/03 12:09:30;;;;;;;;;;;14.00;65.50;;;;;;4259057;33;20062;-73
2021/03/03 12:11:59;;;;;;;;;;;14.10;65.50;;;;;;4259847;33;20456;-74
2021/03/03 12:14:26;;;;;;;;;;;14.00;65.70;;;;;;4260988;33;20070;-74
2021/03/03 12:16:56;;;;;;;;;;;14.10;65.60;;;;;;4260132;33;20021;-74
2021/03/03 12:19:23;;;;;;;;;;;14.10;65.20;;;;;;4258253;33;46000;-74
2021/03/03 12:21:55;;;;;;;;;;;14.10;65.40;;;;;;4259455;33;20067;-73
2021/03/03 12:24:25;;;;;;;;;;;14.10;65.40;;;;;;4258957;33;26363;-74
2021/03/03 12:26:57;;;;;;;;;;;14.10;65.20;;;;;;4260421;33;20015;-73
2021/03/03 12:29:30;;;;;;;;;;;14.10;64.40;;;;;;4259570;33;20007;-73
2021/03/03 12:32:00;;;;;;;;;;;14.10;64.80;;;;;;4259257;33;20004;-73
2021/03/03 12:34:35;;;;;;;;;;;14.20;65.20;;;;;;4260533;33;20027;-74
2021/03/03 12:37:05;;;;;;;;;;;14.20;65.40;;;;;;4246848;33;29287;-74
2021/03/03 12:39:39;;;;;;;;;;;14.20;65.40;;;;;;4247424;33;20366;-74
2021/03/03 12:42:09;;;;;;;;;;;14.20;65.00;;;;;;4260775;33;20058;-74
2021/03/03 12:44:39;;;;;;;;;;;14.20;64.30;;;;;;4260200;33;20023;-73
2021/03/03 12:47:11;;;;;;;;;;;14.20;64.60;;;;;;4258901;33;20031;-73
2021/03/03 12:49:40;;;;;;;;;;;14.30;64.50;;;;;;4259691;33;30417;-74
2021/03/03 12:52:09;;;;;;;;;;;14.30;64.50;;;;;;4258998;33;21526;-73
2021/03/03 12:54:46;;;;;;;;;;;14.40;63.50;;;;;;4259201;33;20011;-73
2021/03/03 12:57:15;;;;;;;;;;;14.40;63.50;;;;;;4246396;33;30763;-73
2021/03/03 12:59:45;;;;;;;;;;;14.50;63.50;;;;;;4259366;33;20023;-73
2021/03/03 13:02:14;;;;;;;;;;;14.50;63.20;;;;;;4259593;33;20318;-74
2021/03/03 13:04:40;;;;;;;;;;;14.50;63.60;;;;;;4259257;33;39648;-74
2021/03/03 13:07:10;;;;;;;;;;;14.60;63.20;;;;;;4258737;33;41459;-73
2021/03/03 13:09:41;;;;;;;;;;;14.60;61.70;;;;;;4258365;33;30293;-73
2021/03/03 13:12:12;;;;;;;;;;;14.60;63.00;;;;;;4246293;33;30627;-73
2021/03/03 13:14:38;;;;;;;;;;;14.70;62.90;;;;;;4259732;33;20492;-73
2021/03/03 13:17:10;;;;;;;;;;;14.70;63.10;;;;;;4259097;33;28352;-73
2021/03/03 13:19:40;;;;;;;;;;;14.70;63.10;;;;;;4258148;33;22643;-74
2021/03/03 13:22:09;;;;;;;;;;;14.70;62.90;;;;;;4258624;33;20015;-73
2021/03/03 13:24:39;;;;;;;;;;;14.80;62.90;;;;;;4260239;33;20021;-74
2021/03/03 13:27:05;;;;;;;;;;;14.80;62.00;;;;;;4259267;33;21828;-73
2021/03/03 13:29:37;;;;;;;;;;;14.80;62.60;;;;;;4258549;33;20074;-73
2021/03/03 13:32:10;;;;;;;;;;;14.90;62.80;;;;;;4259152;33;39711;-73
2021/03/03 13:34:40;;;;;;;;;;;14.90;62.90;;;;;;4258763;33;20015;-73
2021/03/03 13:37:09;;;;;;;;;;;14.90;62.80;;;;;;4246248;33;31652;-73
2021/03/03 13:39:47;;;;;;;;;;;14.90;62.40;;;;;;4248148;33;20463;-73
2021/03/03 13:42:16;;;;;;;;;;;14.90;62.60;;;;;;4257263;33;40178;-74
2021/03/03 13:44:48;;;;;;;;;;;14.90;62.80;;;;;;4257281;33;38589;-74
2021/03/03 13:47:17;;;;;;;;;;;15.00;62.50;;;;;;4258000;33;25493;-74
2021/03/03 13:49:44;;;;;;;;;;;15.00;62.70;;;;;;4258531;33;30523;-73
2021/03/03 13:52:13;;;;;;;;;;;15.00;62.60;;;;;;4259760;33;20067;-73
2021/03/03 13:54:43;;;;;;;;;;;15.10;62.70;;;;;;4259286;33;20014;-74
2021/03/03 13:57:12;;;;;;;;;;;15.10;61.70;;;;;;4260055;33;20059;-73
2021/03/03 13:59:42;;;;;;;;;;;15.10;61.70;;;;;;4258306;33;20141;-73
2021/03/03 14:02:09;;;;;;;;;;;15.10;62.00;;;;;;4259684;33;20078;-74
2021/03/03 14:04:43;;;;;;;;;;;15.10;62.40;;;;;;4248431;33;20390;-73
2021/03/03 14:07:13;;;;;;;;;;;15.20;62.30;;;;;;4249881;33;20014;-74
2021/03/03 14:09:48;;;;;;;;;;;15.20;61.90;;;;;;4261683;33;20030;-74
2021/03/03 14:12:20;;;;;;;;;;;15.20;61.60;;;;;;4261649;33;19995;-74
2021/03/03 14:14:53;;;;;;;;;;;15.30;60.80;;;;;;4261262;33;20003;-74
2021/03/03 14:17:23;;;;;;;;;;;15.30;60.60;;;;;;4261093;33;20413;-74
2021/03/03 14:19:53;;;;;;;;;;;15.30;60.20;;;;;;4260270;33;40777;-74
2021/03/03 14:22:25;;;;;;;;;;;15.30;59.70;;;;;;4262664;33;20025;-74
2021/03/03 14:24:55;;;;;;;;;;;15.30;60.60;;;;;;4249430;33;20007;-74
2021/03/03 14:27:32;;;;;;;;;;;15.30;60.70;;;;;;4249218;33;20416;-74
2021/03/03 14:30:03;;;;;;;;;;;15.30;60.00;;;;;;4260878;33;20310;-74
2021/03/03 14:32:36;;;;;;;;;;;15.30;59.90;;;;;;4259945;33;30613;-74
2021/03/03 14:35:07;;;;;;;;;;;15.30;59.90;;;;;;4261700;33;21859;-74
2021/03/03 14:37:35;;;;;;;;;;;15.30;59.50;;;;;;4261879;33;20384;-74